AAL72 YSSY-KLAX
Flight info
| Callsign | AAL72 |
|---|---|
| Flight time | N/A |
| Altitude | 31000 |
| Route | OLSEM Y193 BNA DCT LAMSI DCT BONEY DCT TEBUR B578 NISAS DCT 19S170E/N0498F330 10S180E DCT CUFFY DCT 00N170W/N0489F350 08N160W 16N150W 22N140W/N0476F370 26N130W DCT FICKY DCT EXERT |
| Aircraft | B77W/H-SDE1E2E3FGHIJ2J3J4J5M1RWXY/LB1D1 |
Departure
| Time | N/A |
|---|---|
| Airport | Sydney Kingsford Smith International Airport (YSSY) |
Arrival
| Time | 2026-04-21 03:00 |
|---|---|
| Airport | Los Angeles International Airport (KLAX) |
| Time | Latitude | Longitude | Altitude | Speed | Heading |
|---|---|---|---|---|---|
| 2026-04-21 02:06 | 30.57274 | -123.05432 | 37010 ft | 501 kts | 53° |
| 2026-04-21 02:06 | 30.59406 | -123.01907 | 37011 ft | 501 kts | 53° |
| 2026-04-21 02:07 | 30.63396 | -122.95301 | 37014 ft | 502 kts | 53° |
| 2026-04-21 02:07 | 30.67381 | -122.88691 | 37016 ft | 502 kts | 53° |
| 2026-04-21 02:08 | 30.71373 | -122.82059 | 37017 ft | 501 kts | 53° |
| 2026-04-21 02:08 | 30.75348 | -122.75444 | 37018 ft | 501 kts | 53° |
| 2026-04-21 02:09 | 30.79335 | -122.68797 | 37021 ft | 501 kts | 53° |
| 2026-04-21 02:09 | 30.83336 | -122.62117 | 37021 ft | 500 kts | 53° |
| 2026-04-21 02:10 | 30.87303 | -122.55482 | 37019 ft | 501 kts | 53° |
| 2026-04-21 02:10 | 30.91157 | -122.49024 | 37021 ft | 501 kts | 53° |
| 2026-04-21 02:11 | 30.94986 | -122.42600 | 37023 ft | 501 kts | 53° |
| 2026-04-21 02:11 | 30.98778 | -122.36227 | 37025 ft | 500 kts | 53° |
| 2026-04-21 02:12 | 31.02608 | -122.29778 | 37014 ft | 501 kts | 54° |
| 2026-04-21 02:12 | 31.06233 | -122.23667 | 37011 ft | 503 kts | 54° |
| 2026-04-21 02:13 | 31.10318 | -122.16766 | 37013 ft | 502 kts | 54° |
| 2026-04-21 02:13 | 31.14160 | -122.10266 | 37009 ft | 503 kts | 54° |
| 2026-04-21 02:14 | 31.17968 | -122.03813 | 37010 ft | 502 kts | 54° |
| 2026-04-21 02:14 | 31.21752 | -121.97390 | 37006 ft | 502 kts | 54° |
| 2026-04-21 02:15 | 31.25698 | -121.90679 | 37005 ft | 502 kts | 54° |
| 2026-04-21 02:15 | 31.29632 | -121.83979 | 37009 ft | 501 kts | 54° |
| 2026-04-21 02:16 | 31.33559 | -121.77280 | 37008 ft | 501 kts | 54° |
| 2026-04-21 02:16 | 31.37520 | -121.70509 | 37009 ft | 503 kts | 54° |
| 2026-04-21 02:17 | 31.41162 | -121.64275 | 37011 ft | 502 kts | 54° |
| 2026-04-21 02:17 | 31.45091 | -121.57535 | 37010 ft | 501 kts | 54° |
| 2026-04-21 02:18 | 31.49021 | -121.50785 | 37010 ft | 503 kts | 54° |
| 2026-04-21 02:18 | 31.52945 | -121.44031 | 37015 ft | 503 kts | 54° |
| 2026-04-21 02:19 | 31.57114 | -121.37556 | 37011 ft | 499 kts | 43° |
| 2026-04-21 02:19 | 31.62274 | -121.32072 | 37005 ft | 500 kts | 40° |
| 2026-04-21 02:20 | 31.67458 | -121.26668 | 37008 ft | 499 kts | 40° |
| 2026-04-21 02:20 | 31.72620 | -121.21238 | 37007 ft | 499 kts | 40° |
| 2026-04-21 02:21 | 31.77767 | -121.15790 | 37012 ft | 498 kts | 40° |
| 2026-04-21 02:21 | 31.82903 | -121.10332 | 37010 ft | 500 kts | 40° |
| 2026-04-21 02:22 | 31.88048 | -121.04849 | 37013 ft | 500 kts | 40° |
| 2026-04-21 02:22 | 31.93194 | -120.99352 | 37015 ft | 501 kts | 40° |
| 2026-04-21 02:23 | 31.98354 | -120.93830 | 37015 ft | 500 kts | 40° |
| 2026-04-21 02:23 | 32.03474 | -120.88341 | 37014 ft | 501 kts | 41° |
| 2026-04-21 02:24 | 32.08682 | -120.82748 | 37018 ft | 502 kts | 41° |
| 2026-04-21 02:24 | 32.13831 | -120.77208 | 37010 ft | 500 kts | 41° |
| 2026-04-21 02:25 | 32.18975 | -120.71664 | 37010 ft | 503 kts | 41° |
| 2026-04-21 02:25 | 32.24099 | -120.66135 | 37013 ft | 502 kts | 41° |
| 2026-04-21 02:26 | 32.29253 | -120.60562 | 37011 ft | 503 kts | 41° |
| 2026-04-21 02:26 | 32.34414 | -120.54974 | 37011 ft | 502 kts | 41° |
| 2026-04-21 02:27 | 32.39580 | -120.49372 | 37011 ft | 504 kts | 41° |
| 2026-04-21 02:27 | 32.44706 | -120.43804 | 37013 ft | 504 kts | 41° |
| 2026-04-21 02:28 | 32.49466 | -120.37652 | 37011 ft | 504 kts | 56° |
| 2026-04-21 02:28 | 32.52775 | -120.30388 | 37006 ft | 503 kts | 65° |
| 2026-04-21 02:29 | 32.55826 | -120.22977 | 36922 ft | 492 kts | 65° |
| 2026-04-21 02:29 | 32.57309 | -120.19367 | 36147 ft | 492 kts | 65° |
| 2026-04-21 02:29 | 32.58828 | -120.15665 | 34952 ft | 501 kts | 65° |
| 2026-04-21 02:29 | 32.60347 | -120.11956 | 33700 ft | 511 kts | 65° |
| 2026-04-21 02:30 | 32.61881 | -120.08212 | 32998 ft | 509 kts | 65° |
| 2026-04-21 02:30 | 32.63411 | -120.04471 | 32650 ft | 500 kts | 65° |
| 2026-04-21 02:30 | 32.64905 | -120.00814 | 32292 ft | 492 kts | 65° |
| 2026-04-21 02:30 | 32.66384 | -119.97194 | 31763 ft | 488 kts | 65° |
| 2026-04-21 02:31 | 32.67862 | -119.93569 | 31166 ft | 485 kts | 65° |
| 2026-04-21 02:31 | 32.69331 | -119.89960 | 30613 ft | 482 kts | 64° |
| 2026-04-21 02:31 | 32.70768 | -119.86430 | 30154 ft | 477 kts | 64° |
| 2026-04-21 02:31 | 32.72207 | -119.82890 | 29612 ft | 474 kts | 64° |
| 2026-04-21 02:32 | 32.73630 | -119.79387 | 29073 ft | 471 kts | 64° |
| 2026-04-21 02:32 | 32.75031 | -119.75934 | 28581 ft | 467 kts | 64° |
| 2026-04-21 02:32 | 32.76432 | -119.72478 | 28155 ft | 462 kts | 65° |
| 2026-04-21 02:32 | 32.77828 | -119.69031 | 27733 ft | 457 kts | 65° |
| 2026-04-21 02:33 | 32.79182 | -119.65683 | 27231 ft | 454 kts | 65° |
| 2026-04-21 02:33 | 32.80550 | -119.62297 | 26709 ft | 451 kts | 65° |
| 2026-04-21 02:33 | 32.81897 | -119.58964 | 26217 ft | 448 kts | 65° |
| 2026-04-21 02:33 | 32.83224 | -119.55673 | 25761 ft | 444 kts | 65° |
| 2026-04-21 02:34 | 32.84565 | -119.52345 | 25292 ft | 440 kts | 65° |
| 2026-04-21 02:34 | 32.85874 | -119.49095 | 24807 ft | 437 kts | 66° |
| 2026-04-21 02:34 | 32.87173 | -119.45866 | 24362 ft | 433 kts | 65° |
| 2026-04-21 02:34 | 32.88470 | -119.42639 | 23912 ft | 429 kts | 66° |
| 2026-04-21 02:35 | 32.89746 | -119.39461 | 23463 ft | 426 kts | 66° |
| 2026-04-21 02:35 | 32.91019 | -119.36287 | 23016 ft | 422 kts | 66° |
| 2026-04-21 02:35 | 32.92275 | -119.33154 | 22546 ft | 420 kts | 67° |
| 2026-04-21 02:35 | 32.93529 | -119.30022 | 22065 ft | 417 kts | 67° |
| 2026-04-21 02:36 | 32.94767 | -119.26929 | 21609 ft | 414 kts | 67° |
| 2026-04-21 02:36 | 32.96001 | -119.23840 | 21133 ft | 411 kts | 67° |
| 2026-04-21 02:36 | 32.97221 | -119.20788 | 20668 ft | 409 kts | 67° |
| 2026-04-21 02:36 | 32.98434 | -119.17746 | 20183 ft | 407 kts | 67° |
| 2026-04-21 02:37 | 32.99639 | -119.14723 | 19718 ft | 404 kts | 68° |
| 2026-04-21 02:37 | 33.00833 | -119.11725 | 19272 ft | 401 kts | 68° |
| 2026-04-21 02:37 | 33.02029 | -119.08720 | 18799 ft | 399 kts | 68° |
| 2026-04-21 02:37 | 33.03203 | -119.05765 | 18343 ft | 397 kts | 68° |
| 2026-04-21 02:38 | 33.04386 | -119.02788 | 17879 ft | 395 kts | 68° |
| 2026-04-21 02:38 | 33.05546 | -118.99866 | 17465 ft | 392 kts | 68° |
| 2026-04-21 02:38 | 33.06702 | -118.96949 | 17063 ft | 388 kts | 68° |
| 2026-04-21 02:38 | 33.07844 | -118.94067 | 16667 ft | 385 kts | 68° |
| 2026-04-21 02:39 | 33.08988 | -118.91177 | 16263 ft | 382 kts | 68° |
| 2026-04-21 02:39 | 33.10101 | -118.88364 | 16023 ft | 375 kts | 68° |
| 2026-04-21 02:39 | 33.11223 | -118.85523 | 15995 ft | 381 kts | 68° |
| 2026-04-21 02:39 | 33.12365 | -118.82628 | 15999 ft | 381 kts | 68° |
| 2026-04-21 02:40 | 33.13484 | -118.79791 | 15987 ft | 381 kts | 68° |
| 2026-04-21 02:40 | 33.14625 | -118.76895 | 15977 ft | 382 kts | 68° |
| 2026-04-21 02:40 | 33.15736 | -118.74072 | 15993 ft | 380 kts | 68° |
| 2026-04-21 02:40 | 33.16859 | -118.71220 | 15998 ft | 378 kts | 68° |
| 2026-04-21 02:41 | 33.17986 | -118.68392 | 15991 ft | 379 kts | 64° |
| 2026-04-21 02:41 | 33.19433 | -118.65764 | 15963 ft | 382 kts | 53° |
| 2026-04-21 02:41 | 33.21139 | -118.63327 | 15856 ft | 382 kts | 51° |
| 2026-04-21 02:41 | 33.22867 | -118.60912 | 15747 ft | 380 kts | 51° |
| 2026-04-21 02:42 | 33.24583 | -118.58510 | 15642 ft | 379 kts | 51° |
| 2026-04-21 02:42 | 33.26283 | -118.56127 | 15539 ft | 377 kts | 51° |
| 2026-04-21 02:42 | 33.27985 | -118.53738 | 15455 ft | 378 kts | 51° |
| 2026-04-21 02:42 | 33.29681 | -118.51354 | 15359 ft | 377 kts | 51° |
| 2026-04-21 02:43 | 33.31353 | -118.48941 | 15260 ft | 375 kts | 56° |
| 2026-04-21 02:43 | 33.32657 | -118.46283 | 15154 ft | 371 kts | 69° |
| 2026-04-21 02:43 | 33.33408 | -118.43351 | 15050 ft | 365 kts | 83° |
| 2026-04-21 02:43 | 33.33606 | -118.40370 | 14962 ft | 361 kts | 92° |
| 2026-04-21 02:44 | 33.33604 | -118.37362 | 14865 ft | 360 kts | 94° |
| 2026-04-21 02:44 | 33.33544 | -118.34373 | 14772 ft | 359 kts | 96° |
| 2026-04-21 02:44 | 33.33438 | -118.31395 | 14670 ft | 358 kts | 96° |
| 2026-04-21 02:44 | 33.33304 | -118.28424 | 14567 ft | 358 kts | 97° |
| 2026-04-21 02:45 | 33.33155 | -118.25456 | 14472 ft | 358 kts | 97° |
| 2026-04-21 02:45 | 33.32997 | -118.22482 | 14376 ft | 358 kts | 97° |
| 2026-04-21 02:45 | 33.32834 | -118.19515 | 14279 ft | 357 kts | 97° |
| 2026-04-21 02:45 | 33.32669 | -118.16552 | 14190 ft | 356 kts | 97° |
| 2026-04-21 02:46 | 33.32560 | -118.13598 | 14092 ft | 357 kts | 90° |
| 2026-04-21 02:46 | 33.33004 | -118.10671 | 13993 ft | 362 kts | 73° |
| 2026-04-21 02:46 | 33.34087 | -118.07975 | 13739 ft | 367 kts | 58° |
| 2026-04-21 02:46 | 33.35714 | -118.05594 | 13215 ft | 369 kts | 48° |
| 2026-04-21 02:47 | 33.37494 | -118.03397 | 12707 ft | 369 kts | 43° |
| 2026-04-21 02:47 | 33.39565 | -118.01593 | 12247 ft | 367 kts | 29° |
| 2026-04-21 02:47 | 33.41892 | -118.00440 | 11811 ft | 365 kts | 15° |
| 2026-04-21 02:47 | 33.44375 | -117.99970 | 11407 ft | 359 kts | 1° |
| 2026-04-21 02:48 | 33.46883 | -118.00000 | 11022 ft | 354 kts | 357° |
| 2026-04-21 02:48 | 33.49342 | -118.00101 | 10643 ft | 350 kts | 357° |
| 2026-04-21 02:48 | 33.51767 | -118.00210 | 10274 ft | 347 kts | 357° |
| 2026-04-21 02:48 | 33.54155 | -118.00321 | 9893 ft | 344 kts | 357° |
| 2026-04-21 02:49 | 33.56536 | -118.00433 | 9557 ft | 339 kts | 357° |
| 2026-04-21 02:49 | 33.58859 | -118.00543 | 9530 ft | 323 kts | 357° |
| 2026-04-21 02:49 | 33.61062 | -118.00623 | 9512 ft | 309 kts | 359° |
| 2026-04-21 02:49 | 33.63188 | -118.00671 | 9427 ft | 297 kts | 358° |
| 2026-04-21 02:50 | 33.65203 | -118.00758 | 9253 ft | 291 kts | 357° |
| 2026-04-21 02:50 | 33.67234 | -118.00846 | 8943 ft | 289 kts | 357° |
| 2026-04-21 02:50 | 33.69260 | -118.00935 | 8631 ft | 288 kts | 357° |
| 2026-04-21 02:50 | 33.71258 | -118.01025 | 8335 ft | 286 kts | 357° |
| 2026-04-21 02:51 | 33.73245 | -118.01117 | 8060 ft | 283 kts | 357° |
| 2026-04-21 02:51 | 33.75159 | -118.01206 | 7761 ft | 282 kts | 357° |
| 2026-04-21 02:51 | 33.77139 | -118.01299 | 7476 ft | 280 kts | 357° |
| 2026-04-21 02:51 | 33.79009 | -118.01386 | 7205 ft | 278 kts | 357° |
| 2026-04-21 02:52 | 33.80861 | -118.01474 | 7077 ft | 269 kts | 357° |
| 2026-04-21 02:52 | 33.82692 | -118.01561 | 7066 ft | 256 kts | 357° |
| 2026-04-21 02:52 | 33.84388 | -118.01951 | 6998 ft | 242 kts | 335° |
| 2026-04-21 02:52 | 33.85914 | -118.02838 | 6751 ft | 240 kts | 332° |
| 2026-04-21 02:53 | 33.87403 | -118.03767 | 6460 ft | 241 kts | 331° |
| 2026-04-21 02:53 | 33.88847 | -118.04677 | 6223 ft | 239 kts | 331° |
| 2026-04-21 02:53 | 33.90330 | -118.05617 | 5968 ft | 237 kts | 331° |
| 2026-04-21 02:53 | 33.91662 | -118.06791 | 5681 ft | 232 kts | 304° |
| 2026-04-21 02:54 | 33.92396 | -118.08431 | 5653 ft | 216 kts | 292° |
| 2026-04-21 02:54 | 33.92992 | -118.10071 | 5527 ft | 208 kts | 291° |
| 2026-04-21 02:54 | 33.93560 | -118.11651 | 5331 ft | 204 kts | 291° |
| 2026-04-21 02:54 | 33.94104 | -118.13166 | 5326 ft | 188 kts | 291° |
| 2026-04-21 02:55 | 33.94618 | -118.14592 | 5100 ft | 184 kts | 291° |
| 2026-04-21 02:55 | 33.95119 | -118.15994 | 4828 ft | 183 kts | 291° |
| 2026-04-21 02:55 | 33.95593 | -118.17433 | 4487 ft | 183 kts | 283° |
| 2026-04-21 02:55 | 33.95686 | -118.18941 | 4126 ft | 181 kts | 264° |
| 2026-04-21 02:56 | 33.95544 | -118.20423 | 3781 ft | 180 kts | 262° |
| 2026-04-21 02:56 | 33.95204 | -118.23518 | 2849 ft | 192 kts | 262° |
| 2026-04-21 02:56 | 33.95031 | -118.25110 | 2467 ft | 193 kts | 262° |
| 2026-04-21 02:57 | 33.94864 | -118.26701 | 2154 ft | 182 kts | 262° |
| 2026-04-21 02:57 | 33.94727 | -118.28163 | 1829 ft | 171 kts | 262° |
| 2026-04-21 02:57 | 33.94602 | -118.29539 | 1547 ft | 161 kts | 262° |
| 2026-04-21 02:57 | 33.94475 | -118.30829 | 1358 ft | 150 kts | 262° |
| 2026-04-21 02:58 | 33.94352 | -118.32016 | 1182 ft | 139 kts | 262° |
| 2026-04-21 02:58 | 33.94235 | -118.33199 | 1047 ft | 143 kts | 262° |
| 2026-04-21 02:58 | 33.94124 | -118.34384 | 809 ft | 143 kts | 262° |
| 2026-04-21 02:58 | 33.94015 | -118.35535 | 559 ft | 141 kts | 262° |
| 2026-04-21 02:59 | 33.93899 | -118.36700 | 363 ft | 140 kts | 262° |
| 2026-04-21 02:59 | 33.93779 | -118.37875 | 210 ft | 140 kts | 261° |
| 2026-04-21 02:59 | 33.93665 | -118.38980 | 114 ft | 126 kts | 262° |
| 2026-04-21 02:59 | 33.93573 | -118.39874 | 123 ft | 90 kts | 263° |
| 2026-04-21 03:00 | 33.93511 | -118.40477 | 131 ft | 54 kts | 263° |
| 2026-04-21 03:00 | 33.93485 | -118.40759 | 133 ft | 25 kts | 264° |
| 2026-04-21 03:00 | 33.93483 | -118.40966 | 134 ft | 25 kts | 278° |
| 2026-04-21 03:00 | 33.93527 | -118.41142 | 134 ft | 11 kts | 294° |
| 2026-04-21 03:01 | 33.93555 | -118.41201 | 134 ft | 0 kts | 307° |
| 2026-04-21 03:01 | 33.93570 | -118.41220 | 133 ft | 9 kts | 316° |
| 2026-04-21 03:01 | 33.93628 | -118.41261 | 133 ft | 9 kts | 343° |
| 2026-04-21 03:02 | 33.93682 | -118.41273 | 133 ft | 0 kts | 354° |
| 2026-04-21 03:02 | 33.93711 | -118.41275 | 133 ft | 11 kts | 2° |
| 2026-04-21 03:02 | 33.93756 | -118.41202 | 133 ft | 19 kts | 78° |
| 2026-04-21 03:03 | 33.93770 | -118.41065 | 134 ft | 20 kts | 84° |
| 2026-04-21 03:03 | 33.93790 | -118.40875 | 133 ft | 19 kts | 83° |
| 2026-04-21 03:03 | 33.93806 | -118.40720 | 133 ft | 18 kts | 83° |
| 2026-04-21 03:03 | 33.93821 | -118.40571 | 132 ft | 18 kts | 83° |
| 2026-04-21 03:04 | 33.93836 | -118.40416 | 130 ft | 17 kts | 83° |
| 2026-04-21 03:04 | 33.93843 | -118.40346 | 129 ft | 6 kts | 83° |
| 2026-04-21 03:04 | 33.93859 | -118.40299 | 129 ft | 6 kts | 30° |
| 2026-04-21 03:04 | 33.93905 | -118.40295 | 129 ft | 6 kts | 359° |
| 2026-04-21 03:05 | 33.93951 | -118.40280 | 129 ft | 7 kts | 24° |
| 2026-04-21 03:05 | 33.93985 | -118.40256 | 128 ft | 2 kts | 37° |
| 2026-04-21 03:05 | 33.93992 | -118.40250 | 128 ft | 0 kts | 37° |